This is the latest recevied weather packets stored in our database for station/object VE3GSI. If no packets are shown the sender has not sent any weather packets the latest 10 day(s).
| Time | Temp. | Humidity | Pressure | Rain* | Wind** | Luminosity | Snow |
|---|---|---|---|---|---|---|---|
| 1778219164 | -1.11° C | 82% | 1009.1 hPa | 0 mm | - | - | - |
| 1778216765 | -0.56° C | 79% | 1009.2 hPa | 0 mm | - | - | - |
| 1778214365 | 1.11° C | 73% | 1009.1 hPa | 0 mm | - | - | - |
| 1778205964 | 3.89° C | 67% | 1008.7 hPa | 0 mm | - | - | - |
| 1778201764 | 7.78° C | 53% | 1008 hPa | 0 mm | - | - | - |
| 1778196964 | 10.56° C | 44% | 1007.2 hPa | 0 mm | - | - | - |
| 1778196364 | 11.11° C | 42% | 1007.3 hPa | 0 mm | - | - | - |
| 1778195164 | 11.11° C | 42% | 1007.3 hPa | 0 mm | - | - | - |
| 1778191566 | 12.22° C | 40% | 1007.2 hPa | 0 mm | - | - | - |
| 1778189767 | 12.22° C | 41% | 1007.2 hPa | 0 mm | - | - | - |
| 1778189166 | 11.67° C | 41% | 1007.3 hPa | 0 mm | - | - | - |
| 1778181966 | 12.22° C | 39% | 1007.6 hPa | 0 mm | - | - | - |
| 1778174166 | 12.22° C | 46% | 1008.5 hPa | 0 mm | - | - | - |
| 1778171166 | 10.56° C | 49% | 1009.2 hPa | 0 mm | - | - | - |
| 1778165166 | 9.44° C | 48% | 1009.6 hPa | 0 mm | - | - | - |
| 1778162765 | 8.89° C | 49% | 1009.9 hPa | 0 mm | - | - | - |
| 1778157365 | 6.67° C | 60% | 1010.3 hPa | 0 mm | - | - | - |
| 1778154366 | 5° C | 72% | 1010.5 hPa | 0 mm | - | - | - |
| 1778151966 | 2.78° C | 81% | 1010.3 hPa | 0 mm | - | - | - |
| 1778148965 | -1.67° C | 93% | 1010 hPa | 0 mm | - | - | - |
| 1778142365 | 0° C | 82% | 1009.5 hPa | 0 mm | - | - | - |
| 1778139965 | 2.22° C | 76% | 1009.6 hPa | 0 mm | - | - | - |
| 1778135766 | 3.89° C | 71% | 1009.4 hPa | 0 mm | - | - | - |
| 1778129766 | 3.89° C | 71% | 1009.5 hPa | 0 mm | - | - | - |
| 1778120166 | 7.22° C | 65% | 1009.2 hPa | 0 mm | - | - | - |
* Rain latest hour (hover to see other rain measurements)
** Current wind speed in m/s (hover to see current wind gust speed)